sensor_id;sensor_type;location;lat;lon;timestamp;temperature;humidity
24814;DHT22;12904;50.088;11.414;2022-12-18T00:01:51;-12.40;99.90
24814;DHT22;12904;50.088;11.414;2022-12-18T00:04:22;-12.50;99.90
24814;DHT22;12904;50.088;11.414;2022-12-18T00:06:48;-12.60;99.90
24814;DHT22;12904;50.088;11.414;2022-12-18T00:09:14;-12.80;99.90
24814;DHT22;12904;50.088;11.414;2022-12-18T00:11:40;-12.90;99.90
24814;DHT22;12904;50.088;11.414;2022-12-18T00:14:05;-12.90;99.90
24814;DHT22;12904;50.088;11.414;2022-12-18T00:16:31;-13.00;99.90
24814;DHT22;12904;50.088;11.414;2022-12-18T00:18:59;-13.10;99.90
24814;DHT22;12904;50.088;11.414;2022-12-18T00:21:26;-13.10;99.90
24814;DHT22;12904;50.088;11.414;2022-12-18T00:23:52;-13.10;99.90
24814;DHT22;12904;50.088;11.414;2022-12-18T00:26:21;-13.10;99.90
24814;DHT22;12904;50.088;11.414;2022-12-18T00:28:47;-13.20;99.90
24814;DHT22;12904;50.088;11.414;2022-12-18T00:31:22;-13.20;99.90
24814;DHT22;12904;50.088;11.414;2022-12-18T00:33:48;-13.20;99.90
24814;DHT22;12904;50.088;11.414;2022-12-18T00:36:16;-13.20;99.90
24814;DHT22;12904;50.088;11.414;2022-12-18T00:38:43;-13.20;99.90
24814;DHT22;12904;50.088;11.414;2022-12-18T00:41:10;-13.20;99.90
24814;DHT22;12904;50.088;11.414;2022-12-18T00:43:37;-13.30;99.90
24814;DHT22;12904;50.088;11.414;2022-12-18T00:46:03;-13.40;99.90
24814;DHT22;12904;50.088;11.414;2022-12-18T00:48:29;-13.40;99.90
24814;DHT22;12904;50.088;11.414;2022-12-18T00:50:54;-13.40;99.90
24814;DHT22;12904;50.088;11.414;2022-12-18T00:53:20;-13.40;99.90
24814;DHT22;12904;50.088;11.414;2022-12-18T00:55:46;-13.40;99.90
24814;DHT22;12904;50.088;11.414;2022-12-18T00:58:13;-13.50;99.90
24814;DHT22;12904;50.088;11.414;2022-12-18T01:00:39;-13.50;99.90
24814;DHT22;12904;50.088;11.414;2022-12-18T01:03:05;-13.50;99.90
24814;DHT22;12904;50.088;11.414;2022-12-18T01:05:31;-13.50;99.90
24814;DHT22;12904;50.088;11.414;2022-12-18T01:07:57;-13.40;99.90
24814;DHT22;12904;50.088;11.414;2022-12-18T01:10:24;-13.30;99.90
24814;DHT22;12904;50.088;11.414;2022-12-18T01:12:50;-13.30;99.90
24814;DHT22;12904;50.088;11.414;2022-12-18T01:15:17;-13.20;99.90
24814;DHT22;12904;50.088;11.414;2022-12-18T01:17:43;-13.30;99.90
24814;DHT22;12904;50.088;11.414;2022-12-18T01:20:10;-13.20;99.90
24814;DHT22;12904;50.088;11.414;2022-12-18T01:22:36;-13.30;99.90
24814;DHT22;12904;50.088;11.414;2022-12-18T01:25:02;-13.30;99.90
24814;DHT22;12904;50.088;11.414;2022-12-18T01:27:29;-13.30;99.90
24814;DHT22;12904;50.088;11.414;2022-12-18T01:29:55;-13.30;99.90
24814;DHT22;12904;50.088;11.414;2022-12-18T01:32:20;-13.40;99.90
24814;DHT22;12904;50.088;11.414;2022-12-18T01:34:47;-13.40;99.90
24814;DHT22;12904;50.088;11.414;2022-12-18T01:37:12;-13.40;99.90
24814;DHT22;12904;50.088;11.414;2022-12-18T01:39:38;-13.50;99.90
24814;DHT22;12904;50.088;11.414;2022-12-18T01:42:11;-13.50;99.90
24814;DHT22;12904;50.088;11.414;2022-12-18T01:45:01;-13.50;99.90
24814;DHT22;12904;50.088;11.414;2022-12-18T01:52:43;-13.50;99.90
24814;DHT22;12904;50.088;11.414;2022-12-18T01:55:11;-13.40;99.90
24814;DHT22;12904;50.088;11.414;2022-12-18T01:57:38;-13.40;99.90
24814;DHT22;12904;50.088;11.414;2022-12-18T02:00:13;-13.50;99.90
24814;DHT22;12904;50.088;11.414;2022-12-18T02:02:41;-13.50;99.90
24814;DHT22;12904;50.088;11.414;2022-12-18T02:05:07;-13.60;99.90
24814;DHT22;12904;50.088;11.414;2022-12-18T02:08:32;-13.70;99.90
24814;DHT22;12904;50.088;11.414;2022-12-18T02:10:48;-13.80;99.90
24814;DHT22;12904;50.088;11.414;2022-12-18T02:13:38;-13.90;99.90
24814;DHT22;12904;50.088;11.414;2022-12-18T02:16:23;-13.80;99.90
24814;DHT22;12904;50.088;11.414;2022-12-18T02:18:53;-13.80;99.90
24814;DHT22;12904;50.088;11.414;2022-12-18T02:21:48;-13.70;99.90
24814;DHT22;12904;50.088;11.414;2022-12-18T02:24:28;-13.60;99.90
24814;DHT22;12904;50.088;11.414;2022-12-18T02:27:07;-13.50;99.90
24814;DHT22;12904;50.088;11.414;2022-12-18T02:32:13;-13.20;99.90
24814;DHT22;12904;50.088;11.414;2022-12-18T02:34:41;-13.00;99.90
24814;DHT22;12904;50.088;11.414;2022-12-18T02:37:11;-12.80;99.90
24814;DHT22;12904;50.088;11.414;2022-12-18T02:39:39;-12.60;99.90
24814;DHT22;12904;50.088;11.414;2022-12-18T02:42:07;-12.50;99.90
24814;DHT22;12904;50.088;11.414;2022-12-18T02:44:34;-12.30;99.90
24814;DHT22;12904;50.088;11.414;2022-12-18T02:47:01;-12.20;99.90
24814;DHT22;12904;50.088;11.414;2022-12-18T03:00:58;-11.70;99.90
24814;DHT22;12904;50.088;11.414;2022-12-18T03:03:33;-11.90;99.90
24814;DHT22;12904;50.088;11.414;2022-12-18T03:06:18;-12.00;99.90
24814;DHT22;12904;50.088;11.414;2022-12-18T03:08:49;-12.10;99.90
24814;DHT22;12904;50.088;11.414;2022-12-18T03:11:17;-12.20;99.90
24814;DHT22;12904;50.088;11.414;2022-12-18T03:14:04;-12.40;99.90
24814;DHT22;12904;50.088;11.414;2022-12-18T03:16:31;-12.50;99.90
24814;DHT22;12904;50.088;11.414;2022-12-18T03:19:08;-12.50;99.90
24814;DHT22;12904;50.088;11.414;2022-12-18T03:22:02;-12.50;99.90
24814;DHT22;12904;50.088;11.414;2022-12-18T03:24:31;-12.60;99.90
24814;DHT22;12904;50.088;11.414;2022-12-18T03:27:01;-12.60;99.90
24814;DHT22;12904;50.088;11.414;2022-12-18T03:29:31;-12.60;99.90
24814;DHT22;12904;50.088;11.414;2022-12-18T03:32:04;-12.60;99.90
24814;DHT22;12904;50.088;11.414;2022-12-18T03:34:33;-12.50;99.90
24814;DHT22;12904;50.088;11.414;2022-12-18T03:37:03;-12.50;99.90
24814;DHT22;12904;50.088;11.414;2022-12-18T03:39:29;-12.40;99.90
24814;DHT22;12904;50.088;11.414;2022-12-18T03:55:46;-12.10;99.90
24814;DHT22;12904;50.088;11.414;2022-12-18T03:58:17;-12.10;99.90
24814;DHT22;12904;50.088;11.414;2022-12-18T04:00:44;-12.10;99.90
24814;DHT22;12904;50.088;11.414;2022-12-18T04:03:10;-12.10;99.90
24814;DHT22;12904;50.088;11.414;2022-12-18T04:05:36;-12.10;99.90
24814;DHT22;12904;50.088;11.414;2022-12-18T04:08:03;-12.20;99.90
24814;DHT22;12904;50.088;11.414;2022-12-18T04:10:29;-12.30;99.90
24814;DHT22;12904;50.088;11.414;2022-12-18T04:12:58;-12.50;99.90
24814;DHT22;12904;50.088;11.414;2022-12-18T04:15:24;-12.70;99.90
24814;DHT22;12904;50.088;11.414;2022-12-18T04:17:50;-12.90;99.90
24814;DHT22;12904;50.088;11.414;2022-12-18T04:20:16;-13.00;99.90
24814;DHT22;12904;50.088;11.414;2022-12-18T04:22:42;-13.20;99.90
24814;DHT22;12904;50.088;11.414;2022-12-18T04:25:11;-13.30;99.90
24814;DHT22;12904;50.088;11.414;2022-12-18T04:27:36;-13.40;99.90
24814;DHT22;12904;50.088;11.414;2022-12-18T04:30:02;-13.60;99.90
24814;DHT22;12904;50.088;11.414;2022-12-18T04:32:28;-13.60;99.90
24814;DHT22;12904;50.088;11.414;2022-12-18T04:34:54;-13.70;99.90
24814;DHT22;12904;50.088;11.414;2022-12-18T04:37:20;-13.70;99.90
24814;DHT22;12904;50.088;11.414;2022-12-18T04:39:46;-13.80;99.90
24814;DHT22;12904;50.088;11.414;2022-12-18T04:42:11;-13.80;99.90
24814;DHT22;12904;50.088;11.414;2022-12-18T04:44:38;-13.80;99.90
24814;DHT22;12904;50.088;11.414;2022-12-18T04:47:04;-13.80;99.90
24814;DHT22;12904;50.088;11.414;2022-12-18T04:49:29;-13.80;99.90
24814;DHT22;12904;50.088;11.414;2022-12-18T04:51:56;-13.80;99.90
24814;DHT22;12904;50.088;11.414;2022-12-18T04:54:22;-13.70;99.90
24814;DHT22;12904;50.088;11.414;2022-12-18T04:56:48;-13.70;99.90
24814;DHT22;12904;50.088;11.414;2022-12-18T04:59:13;-13.80;99.90
24814;DHT22;12904;50.088;11.414;2022-12-18T05:01:39;-13.80;99.90
24814;DHT22;12904;50.088;11.414;2022-12-18T05:04:05;-13.80;99.90
24814;DHT22;12904;50.088;11.414;2022-12-18T05:06:30;-13.70;99.90
24814;DHT22;12904;50.088;11.414;2022-12-18T05:08:56;-13.70;99.90
24814;DHT22;12904;50.088;11.414;2022-12-18T05:11:22;-13.80;99.90
24814;DHT22;12904;50.088;11.414;2022-12-18T05:13:48;-13.80;99.90
24814;DHT22;12904;50.088;11.414;2022-12-18T05:16:14;-13.80;99.90
24814;DHT22;12904;50.088;11.414;2022-12-18T05:18:40;-13.70;99.90
24814;DHT22;12904;50.088;11.414;2022-12-18T05:21:06;-13.70;99.90
24814;DHT22;12904;50.088;11.414;2022-12-18T05:23:35;-13.70;99.90
24814;DHT22;12904;50.088;11.414;2022-12-18T05:26:04;-13.70;99.90
24814;DHT22;12904;50.088;11.414;2022-12-18T05:28:31;-13.70;99.90
24814;DHT22;12904;50.088;11.414;2022-12-18T05:30:58;-13.60;99.90
24814;DHT22;12904;50.088;11.414;2022-12-18T05:33:26;-13.60;99.90
24814;DHT22;12904;50.088;11.414;2022-12-18T05:35:54;-13.60;99.90
24814;DHT22;12904;50.088;11.414;2022-12-18T05:38:21;-13.60;99.90
24814;DHT22;12904;50.088;11.414;2022-12-18T05:40:48;-13.60;99.90
24814;DHT22;12904;50.088;11.414;2022-12-18T05:43:14;-13.60;99.90
24814;DHT22;12904;50.088;11.414;2022-12-18T05:45:40;-13.70;99.90
24814;DHT22;12904;50.088;11.414;2022-12-18T05:48:07;-13.60;99.90
24814;DHT22;12904;50.088;11.414;2022-12-18T05:50:37;-13.60;99.90
24814;DHT22;12904;50.088;11.414;2022-12-18T05:53:03;-13.60;99.90
24814;DHT22;12904;50.088;11.414;2022-12-18T05:55:35;-13.60;99.90
24814;DHT22;12904;50.088;11.414;2022-12-18T05:58:02;-13.70;99.90
24814;DHT22;12904;50.088;11.414;2022-12-18T06:00:28;-13.80;99.90
24814;DHT22;12904;50.088;11.414;2022-12-18T06:02:54;-13.80;99.90
24814;DHT22;12904;50.088;11.414;2022-12-18T06:05:20;-13.80;99.90
24814;DHT22;12904;50.088;11.414;2022-12-18T06:07:45;-13.80;99.90
24814;DHT22;12904;50.088;11.414;2022-12-18T06:10:11;-13.90;99.90
24814;DHT22;12904;50.088;11.414;2022-12-18T06:12:37;-14.00;99.90
24814;DHT22;12904;50.088;11.414;2022-12-18T06:15:03;-14.10;99.90
24814;DHT22;12904;50.088;11.414;2022-12-18T06:17:30;-14.20;99.90
24814;DHT22;12904;50.088;11.414;2022-12-18T06:19:55;-14.30;99.90
24814;DHT22;12904;50.088;11.414;2022-12-18T06:22:21;-14.30;99.90
24814;DHT22;12904;50.088;11.414;2022-12-18T06:24:47;-14.30;99.90
24814;DHT22;12904;50.088;11.414;2022-12-18T06:27:12;-14.20;99.90
24814;DHT22;12904;50.088;11.414;2022-12-18T06:29:38;-14.10;99.90
24814;DHT22;12904;50.088;11.414;2022-12-18T06:32:04;-13.90;99.90
24814;DHT22;12904;50.088;11.414;2022-12-18T06:34:33;-13.70;99.90
24814;DHT22;12904;50.088;11.414;2022-12-18T06:36:59;-13.70;99.90
24814;DHT22;12904;50.088;11.414;2022-12-18T06:39:27;-13.70;99.90
24814;DHT22;12904;50.088;11.414;2022-12-18T06:41:52;-13.70;99.90
24814;DHT22;12904;50.088;11.414;2022-12-18T06:44:18;-13.70;99.90
24814;DHT22;12904;50.088;11.414;2022-12-18T06:46:44;-13.80;99.90
24814;DHT22;12904;50.088;11.414;2022-12-18T06:49:09;-13.90;99.90
24814;DHT22;12904;50.088;11.414;2022-12-18T06:51:35;-14.10;99.90
24814;DHT22;12904;50.088;11.414;2022-12-18T06:54:01;-14.20;99.90
24814;DHT22;12904;50.088;11.414;2022-12-18T06:56:27;-14.30;99.90
24814;DHT22;12904;50.088;11.414;2022-12-18T06:58:53;-14.30;99.90
24814;DHT22;12904;50.088;11.414;2022-12-18T07:01:19;-14.20;99.90
24814;DHT22;12904;50.088;11.414;2022-12-18T07:03:44;-14.20;99.90
24814;DHT22;12904;50.088;11.414;2022-12-18T07:06:18;-14.20;99.90
24814;DHT22;12904;50.088;11.414;2022-12-18T07:08:45;-14.20;99.90
24814;DHT22;12904;50.088;11.414;2022-12-18T07:11:11;-14.10;99.90
24814;DHT22;12904;50.088;11.414;2022-12-18T07:13:37;-14.10;99.90
24814;DHT22;12904;50.088;11.414;2022-12-18T07:16:11;-14.00;99.90
24814;DHT22;12904;50.088;11.414;2022-12-18T07:18:37;-13.90;99.90
24814;DHT22;12904;50.088;11.414;2022-12-18T07:21:08;-13.90;99.90
24814;DHT22;12904;50.088;11.414;2022-12-18T07:23:35;-14.00;99.90
24814;DHT22;12904;50.088;11.414;2022-12-18T07:26:05;-14.10;99.90
24814;DHT22;12904;50.088;11.414;2022-12-18T07:28:32;-14.20;99.90
24814;DHT22;12904;50.088;11.414;2022-12-18T07:31:02;-14.30;99.90
24814;DHT22;12904;50.088;11.414;2022-12-18T07:33:28;-14.40;99.90
24814;DHT22;12904;50.088;11.414;2022-12-18T07:35:54;-14.50;99.90
24814;DHT22;12904;50.088;11.414;2022-12-18T07:38:19;-14.50;99.90
24814;DHT22;12904;50.088;11.414;2022-12-18T07:40:45;-14.50;99.90
24814;DHT22;12904;50.088;11.414;2022-12-18T07:43:11;-14.50;99.90
24814;DHT22;12904;50.088;11.414;2022-12-18T07:45:36;-14.40;99.90
24814;DHT22;12904;50.088;11.414;2022-12-18T07:48:02;-14.40;99.90
24814;DHT22;12904;50.088;11.414;2022-12-18T07:50:27;-14.30;99.90
24814;DHT22;12904;50.088;11.414;2022-12-18T07:52:53;-14.30;99.90
24814;DHT22;12904;50.088;11.414;2022-12-18T07:55:19;-14.20;99.90
24814;DHT22;12904;50.088;11.414;2022-12-18T07:57:44;-14.10;99.90
24814;DHT22;12904;50.088;11.414;2022-12-18T08:00:11;-14.00;99.90
24814;DHT22;12904;50.088;11.414;2022-12-18T08:02:37;-13.90;99.90
24814;DHT22;12904;50.088;11.414;2022-12-18T08:05:03;-13.70;99.90
24814;DHT22;12904;50.088;11.414;2022-12-18T08:07:29;-13.60;99.90
24814;DHT22;12904;50.088;11.414;2022-12-18T08:09:54;-13.40;99.90
24814;DHT22;12904;50.088;11.414;2022-12-18T08:12:20;-13.30;99.90
24814;DHT22;12904;50.088;11.414;2022-12-18T08:14:45;-13.20;99.90
24814;DHT22;12904;50.088;11.414;2022-12-18T08:17:11;-13.00;99.90
24814;DHT22;12904;50.088;11.414;2022-12-18T08:19:37;-12.90;99.90
24814;DHT22;12904;50.088;11.414;2022-12-18T08:22:02;-12.70;99.90
24814;DHT22;12904;50.088;11.414;2022-12-18T08:24:28;-12.60;99.90
24814;DHT22;12904;50.088;11.414;2022-12-18T08:26:53;-12.40;99.90
24814;DHT22;12904;50.088;11.414;2022-12-18T08:29:19;-12.30;99.90
24814;DHT22;12904;50.088;11.414;2022-12-18T08:31:45;-12.20;99.90
24814;DHT22;12904;50.088;11.414;2022-12-18T08:34:10;-12.20;99.90
24814;DHT22;12904;50.088;11.414;2022-12-18T08:36:36;-12.20;99.90
24814;DHT22;12904;50.088;11.414;2022-12-18T08:39:02;-12.20;99.90
24814;DHT22;12904;50.088;11.414;2022-12-18T08:41:27;-12.20;99.90
24814;DHT22;12904;50.088;11.414;2022-12-18T08:43:53;-12.10;99.90
24814;DHT22;12904;50.088;11.414;2022-12-18T08:46:39;-12.10;99.90
24814;DHT22;12904;50.088;11.414;2022-12-18T08:49:06;-12.00;99.90
24814;DHT22;12904;50.088;11.414;2022-12-18T08:51:33;-12.00;99.90
24814;DHT22;12904;50.088;11.414;2022-12-18T08:53:58;-11.90;99.90
24814;DHT22;12904;50.088;11.414;2022-12-18T08:56:24;-11.80;99.90
24814;DHT22;12904;50.088;11.414;2022-12-18T08:58:54;-11.70;99.90
24814;DHT22;12904;50.088;11.414;2022-12-18T09:01:20;-11.70;99.90
24814;DHT22;12904;50.088;11.414;2022-12-18T09:03:46;-11.70;99.90
24814;DHT22;12904;50.088;11.414;2022-12-18T09:06:15;-11.60;99.90
24814;DHT22;12904;50.088;11.414;2022-12-18T09:08:41;-11.60;99.90
24814;DHT22;12904;50.088;11.414;2022-12-18T09:11:27;-11.50;99.90
24814;DHT22;12904;50.088;11.414;2022-12-18T09:13:54;-11.10;99.90
24814;DHT22;12904;50.088;11.414;2022-12-18T09:16:20;-10.80;99.90
24814;DHT22;12904;50.088;11.414;2022-12-18T09:18:47;-10.00;99.90
24814;DHT22;12904;50.088;11.414;2022-12-18T09:21:17;-9.50;99.90
24814;DHT22;12904;50.088;11.414;2022-12-18T09:23:43;-8.80;99.90
24814;DHT22;12904;50.088;11.414;2022-12-18T09:26:09;-7.90;99.90
24814;DHT22;12904;50.088;11.414;2022-12-18T09:28:35;-7.20;97.80
24814;DHT22;12904;50.088;11.414;2022-12-18T09:31:05;-6.00;96.80
24814;DHT22;12904;50.088;11.414;2022-12-18T09:33:33;-4.90;94.70
24814;DHT22;12904;50.088;11.414;2022-12-18T09:36:02;-4.10;91.40
24814;DHT22;12904;50.088;11.414;2022-12-18T09:38:28;-3.00;90.40
24814;DHT22;12904;50.088;11.414;2022-12-18T09:41:00;-2.20;84.00
24814;DHT22;12904;50.088;11.414;2022-12-18T09:43:44;-1.40;79.20
24814;DHT22;12904;50.088;11.414;2022-12-18T09:46:17;-1.30;78.00
24814;DHT22;12904;50.088;11.414;2022-12-18T09:48:47;-0.70;78.30
24814;DHT22;12904;50.088;11.414;2022-12-18T09:51:17;-0.30;75.30
24814;DHT22;12904;50.088;11.414;2022-12-18T09:53:51;-0.50;75.90
24814;DHT22;12904;50.088;11.414;2022-12-18T09:56:20;-0.70;76.30
24814;DHT22;12904;50.088;11.414;2022-12-18T09:58:59;-0.70;75.40
24814;DHT22;12904;50.088;11.414;2022-12-18T10:01:26;-0.50;78.10
24814;DHT22;12904;50.088;11.414;2022-12-18T10:03:53;-0.40;76.50
24814;DHT22;12904;50.088;11.414;2022-12-18T10:11:38;-1.00;76.90
24814;DHT22;12904;50.088;11.414;2022-12-18T10:14:17;-0.80;76.30
24814;DHT22;12904;50.088;11.414;2022-12-18T10:27:24;0.80;79.90
24814;DHT22;12904;50.088;11.414;2022-12-18T10:29:51;1.10;77.90
24814;DHT22;12904;50.088;11.414;2022-12-18T10:32:25;1.50;77.60
24814;DHT22;12904;50.088;11.414;2022-12-18T10:34:55;1.60;76.90
24814;DHT22;12904;50.088;11.414;2022-12-18T10:37:26;1.90;77.00
24814;DHT22;12904;50.088;11.414;2022-12-18T10:40:24;2.10;76.50
24814;DHT22;12904;50.088;11.414;2022-12-18T10:43:04;2.20;75.30
24814;DHT22;12904;50.088;11.414;2022-12-18T10:45:30;2.20;75.90
24814;DHT22;12904;50.088;11.414;2022-12-18T10:47:56;2.10;76.70
24814;DHT22;12904;50.088;11.414;2022-12-18T10:50:36;1.70;75.30
24814;DHT22;12904;50.088;11.414;2022-12-18T10:53:04;1.20;77.70
24814;DHT22;12904;50.088;11.414;2022-12-18T10:55:34;0.90;79.00
24814;DHT22;12904;50.088;11.414;2022-12-18T10:58:12;0.50;80.40
24814;DHT22;12904;50.088;11.414;2022-12-18T11:00:38;0.20;81.40
24814;DHT22;12904;50.088;11.414;2022-12-18T11:03:31;-0.20;82.90
24814;DHT22;12904;50.088;11.414;2022-12-18T11:06:13;-0.30;84.10
24814;DHT22;12904;50.088;11.414;2022-12-18T11:08:39;-0.40;84.80
24814;DHT22;12904;50.088;11.414;2022-12-18T11:11:22;-0.50;84.50
24814;DHT22;12904;50.088;11.414;2022-12-18T11:14:06;-0.50;86.20
24814;DHT22;12904;50.088;11.414;2022-12-18T11:16:44;-0.70;87.30
24814;DHT22;12904;50.088;11.414;2022-12-18T11:21:56;-0.90;87.80
24814;DHT22;12904;50.088;11.414;2022-12-18T11:26:54;-1.00;88.30
24814;DHT22;12904;50.088;11.414;2022-12-18T11:29:34;-1.00;88.80
24814;DHT22;12904;50.088;11.414;2022-12-18T11:34:47;-1.40;90.20
24814;DHT22;12904;50.088;11.414;2022-12-18T11:37:15;-1.50;90.40
24814;DHT22;12904;50.088;11.414;2022-12-18T11:39:59;-1.50;90.60
24814;DHT22;12904;50.088;11.414;2022-12-18T11:42:41;-1.50;90.80
24814;DHT22;12904;50.088;11.414;2022-12-18T11:50:26;-1.30;90.80
24814;DHT22;12904;50.088;11.414;2022-12-18T11:52:54;-1.20;91.10
24814;DHT22;12904;50.088;11.414;2022-12-18T11:55:41;-1.10;91.30
24814;DHT22;12904;50.088;11.414;2022-12-18T12:06:55;-0.50;90.50
24814;DHT22;12904;50.088;11.414;2022-12-18T12:15:05;-0.70;90.40
24814;DHT22;12904;50.088;11.414;2022-12-18T12:17:49;-0.80;90.60
24814;DHT22;12904;50.088;11.414;2022-12-18T12:20:29;-0.80;90.90
24814;DHT22;12904;50.088;11.414;2022-12-18T12:23:04;-0.70;90.80
24814;DHT22;12904;50.088;11.414;2022-12-18T12:36:57;-1.30;91.60
24814;DHT22;12904;50.088;11.414;2022-12-18T12:39:38;-1.50;91.90
24814;DHT22;12904;50.088;11.414;2022-12-18T12:42:13;-1.70;92.50
24814;DHT22;12904;50.088;11.414;2022-12-18T12:45:02;-1.80;93.00
24814;DHT22;12904;50.088;11.414;2022-12-18T12:47:33;-1.90;93.70
24814;DHT22;12904;50.088;11.414;2022-12-18T12:50:02;-2.00;93.60
24814;DHT22;12904;50.088;11.414;2022-12-18T12:55:29;-2.20;93.80
24814;DHT22;12904;50.088;11.414;2022-12-18T13:08:58;-1.90;93.80
24814;DHT22;12904;50.088;11.414;2022-12-18T13:14:26;-1.90;93.90
24814;DHT22;12904;50.088;11.414;2022-12-18T13:19:51;-1.90;93.90
24814;DHT22;12904;50.088;11.414;2022-12-18T13:22:28;-1.90;93.90
24814;DHT22;12904;50.088;11.414;2022-12-18T13:24:54;-1.90;93.90
24814;DHT22;12904;50.088;11.414;2022-12-18T13:39:31;-2.30;94.70
24814;DHT22;12904;50.088;11.414;2022-12-18T13:48:23;-2.90;96.00
24814;DHT22;12904;50.088;11.414;2022-12-18T13:51:00;-2.90;96.40
24814;DHT22;12904;50.088;11.414;2022-12-18T13:53:36;-3.00;96.90
24814;DHT22;12904;50.088;11.414;2022-12-18T13:56:05;-3.20;97.40
24814;DHT22;12904;50.088;11.414;2022-12-18T13:58:31;-3.30;98.00
24814;DHT22;12904;50.088;11.414;2022-12-18T14:00:56;-3.30;98.40
24814;DHT22;12904;50.088;11.414;2022-12-18T14:03:26;-3.40;98.80
24814;DHT22;12904;50.088;11.414;2022-12-18T14:06:07;-3.50;99.30
24814;DHT22;12904;50.088;11.414;2022-12-18T14:08:42;-3.50;99.80
24814;DHT22;12904;50.088;11.414;2022-12-18T14:11:19;-3.60;99.90
24814;DHT22;12904;50.088;11.414;2022-12-18T14:13:46;-3.60;99.90
24814;DHT22;12904;50.088;11.414;2022-12-18T14:16:14;-3.60;99.90
24814;DHT22;12904;50.088;11.414;2022-12-18T14:18:54;-3.70;99.90
24814;DHT22;12904;50.088;11.414;2022-12-18T14:21:28;-3.70;99.90
24814;DHT22;12904;50.088;11.414;2022-12-18T14:26:33;-3.80;99.90
24814;DHT22;12904;50.088;11.414;2022-12-18T14:31:44;-3.90;99.90
24814;DHT22;12904;50.088;11.414;2022-12-18T14:34:16;-4.00;99.90
24814;DHT22;12904;50.088;11.414;2022-12-18T14:36:52;-4.00;99.90
24814;DHT22;12904;50.088;11.414;2022-12-18T14:39:18;-4.00;99.90
24814;DHT22;12904;50.088;11.414;2022-12-18T14:41:44;-4.10;99.90
24814;DHT22;12904;50.088;11.414;2022-12-18T14:44:12;-4.10;99.90
24814;DHT22;12904;50.088;11.414;2022-12-18T14:46:42;-4.20;99.90
24814;DHT22;12904;50.088;11.414;2022-12-18T14:49:31;-4.30;99.90
24814;DHT22;12904;50.088;11.414;2022-12-18T14:52:06;-4.30;99.90
24814;DHT22;12904;50.088;11.414;2022-12-18T14:54:40;-4.40;99.90
24814;DHT22;12904;50.088;11.414;2022-12-18T14:57:22;-4.40;99.90
24814;DHT22;12904;50.088;11.414;2022-12-18T14:59:48;-4.50;99.90
24814;DHT22;12904;50.088;11.414;2022-12-18T15:02:25;-4.60;99.90
24814;DHT22;12904;50.088;11.414;2022-12-18T15:05:30;-4.60;99.90
24814;DHT22;12904;50.088;11.414;2022-12-18T15:07:57;-4.70;99.90
24814;DHT22;12904;50.088;11.414;2022-12-18T15:10:24;-4.70;99.90
24814;DHT22;12904;50.088;11.414;2022-12-18T15:18:03;-4.80;99.90
24814;DHT22;12904;50.088;11.414;2022-12-18T15:20:41;-4.80;99.90
24814;DHT22;12904;50.088;11.414;2022-12-18T15:23:36;-4.80;99.90
24814;DHT22;12904;50.088;11.414;2022-12-18T15:26:05;-4.90;99.90
24814;DHT22;12904;50.088;11.414;2022-12-18T15:28:50;-4.90;99.90
24814;DHT22;12904;50.088;11.414;2022-12-18T15:33:44;-5.00;99.90
24814;DHT22;12904;50.088;11.414;2022-12-18T15:36:15;-5.10;99.90
24814;DHT22;12904;50.088;11.414;2022-12-18T15:38:41;-5.10;99.90
24814;DHT22;12904;50.088;11.414;2022-12-18T15:41:18;-5.10;99.90
24814;DHT22;12904;50.088;11.414;2022-12-18T15:43:45;-5.10;99.90
24814;DHT22;12904;50.088;11.414;2022-12-18T15:46:14;-5.20;99.90
24814;DHT22;12904;50.088;11.414;2022-12-18T15:48:45;-5.20;99.90
24814;DHT22;12904;50.088;11.414;2022-12-18T15:51:21;-5.20;99.90
24814;DHT22;12904;50.088;11.414;2022-12-18T15:53:50;-5.20;99.90
24814;DHT22;12904;50.088;11.414;2022-12-18T15:56:16;-5.20;99.90
24814;DHT22;12904;50.088;11.414;2022-12-18T15:59:01;-5.20;99.90
24814;DHT22;12904;50.088;11.414;2022-12-18T16:01:29;-5.20;99.90
24814;DHT22;12904;50.088;11.414;2022-12-18T16:03:55;-5.10;99.90
24814;DHT22;12904;50.088;11.414;2022-12-18T16:06:21;-5.00;99.90
24814;DHT22;12904;50.088;11.414;2022-12-18T16:08:47;-5.00;99.90
24814;DHT22;12904;50.088;11.414;2022-12-18T16:11:28;-5.00;99.90
24814;DHT22;12904;50.088;11.414;2022-12-18T16:16:30;-5.00;99.90
24814;DHT22;12904;50.088;11.414;2022-12-18T16:18:56;-5.00;99.90
24814;DHT22;12904;50.088;11.414;2022-12-18T16:21:22;-5.10;99.90
24814;DHT22;12904;50.088;11.414;2022-12-18T16:23:47;-5.10;99.90
24814;DHT22;12904;50.088;11.414;2022-12-18T16:26:13;-5.10;99.90
24814;DHT22;12904;50.088;11.414;2022-12-18T16:28:38;-5.10;99.90
24814;DHT22;12904;50.088;11.414;2022-12-18T16:31:04;-5.10;99.90
24814;DHT22;12904;50.088;11.414;2022-12-18T16:33:30;-5.20;99.90
24814;DHT22;12904;50.088;11.414;2022-12-18T16:35:56;-5.10;99.90
24814;DHT22;12904;50.088;11.414;2022-12-18T16:38:21;-5.10;99.90
24814;DHT22;12904;50.088;11.414;2022-12-18T16:40:47;-5.10;99.90
24814;DHT22;12904;50.088;11.414;2022-12-18T16:43:31;-5.00;99.90
24814;DHT22;12904;50.088;11.414;2022-12-18T16:45:58;-5.00;99.90
24814;DHT22;12904;50.088;11.414;2022-12-18T16:48:24;-5.00;99.90
24814;DHT22;12904;50.088;11.414;2022-12-18T16:50:50;-5.00;99.90
24814;DHT22;12904;50.088;11.414;2022-12-18T16:53:24;-5.00;99.90
24814;DHT22;12904;50.088;11.414;2022-12-18T16:55:54;-4.90;99.90
24814;DHT22;12904;50.088;11.414;2022-12-18T16:58:20;-4.90;99.90
24814;DHT22;12904;50.088;11.414;2022-12-18T17:00:45;-4.90;99.90
24814;DHT22;12904;50.088;11.414;2022-12-18T17:03:11;-4.90;99.90
24814;DHT22;12904;50.088;11.414;2022-12-18T17:05:37;-4.90;99.90
24814;DHT22;12904;50.088;11.414;2022-12-18T17:08:02;-4.90;99.90
24814;DHT22;12904;50.088;11.414;2022-12-18T17:10:28;-4.90;99.90
24814;DHT22;12904;50.088;11.414;2022-12-18T17:12:53;-4.90;99.90
24814;DHT22;12904;50.088;11.414;2022-12-18T17:15:19;-4.90;99.90
24814;DHT22;12904;50.088;11.414;2022-12-18T17:17:45;-4.90;99.90
24814;DHT22;12904;50.088;11.414;2022-12-18T17:20:10;-4.90;99.90
24814;DHT22;12904;50.088;11.414;2022-12-18T17:22:36;-4.90;99.90
24814;DHT22;12904;50.088;11.414;2022-12-18T17:25:02;-5.00;99.90
24814;DHT22;12904;50.088;11.414;2022-12-18T17:27:27;-5.00;99.90
24814;DHT22;12904;50.088;11.414;2022-12-18T17:29:53;-5.00;99.90
24814;DHT22;12904;50.088;11.414;2022-12-18T17:32:19;-5.00;99.90
24814;DHT22;12904;50.088;11.414;2022-12-18T17:34:45;-4.90;99.90
24814;DHT22;12904;50.088;11.414;2022-12-18T17:37:11;-4.90;99.90
24814;DHT22;12904;50.088;11.414;2022-12-18T17:39:36;-4.90;99.90
24814;DHT22;12904;50.088;11.414;2022-12-18T17:42:02;-4.90;99.90
24814;DHT22;12904;50.088;11.414;2022-12-18T17:44:28;-4.90;99.90